sensor_id;sensor_type;location;lat;lon;timestamp;pressure;altitude;pressure_sealevel;temperature;humidity
73558;BME280;61829;53.286;10.434;2022-09-09T00:04:10;100623.34;;;13.66;98.42
73558;BME280;61829;53.286;10.434;2022-09-09T00:10:32;100619.00;;;13.65;98.58
73558;BME280;61829;53.286;10.434;2022-09-09T00:18:29;100628.38;;;13.63;98.81
73558;BME280;61829;53.286;10.434;2022-09-09T00:21:08;100623.34;;;13.66;98.79
73558;BME280;61829;53.286;10.434;2022-09-09T00:23:44;100612.53;;;13.66;98.88
73558;BME280;61829;53.286;10.434;2022-09-09T00:29:22;100614.81;;;13.69;98.75
73558;BME280;61829;53.286;10.434;2022-09-09T00:31:57;100613.56;;;13.72;98.42
73558;BME280;61829;53.286;10.434;2022-09-09T00:34:27;100617.50;;;13.69;98.31
73558;BME280;61829;53.286;10.434;2022-09-09T00:36:54;100619.41;;;13.69;98.40
73558;BME280;61829;53.286;10.434;2022-09-09T00:39:35;100622.09;;;13.69;98.18
73558;BME280;61829;53.286;10.434;2022-09-09T00:42:26;100614.22;;;13.67;97.84
73558;BME280;61829;53.286;10.434;2022-09-09T00:45:19;100617.75;;;13.68;97.81
73558;BME280;61829;53.286;10.434;2022-09-09T00:47:51;100613.34;;;13.67;97.51
73558;BME280;61829;53.286;10.434;2022-09-09T00:50:33;100612.75;;;13.65;97.92
73558;BME280;61829;53.286;10.434;2022-09-09T00:55:42;100604.19;;;13.61;97.81
73558;BME280;61829;53.286;10.434;2022-09-09T00:58:10;100606.31;;;13.59;97.92
73558;BME280;61829;53.286;10.434;2022-09-09T01:03:29;100606.50;;;13.58;97.50
73558;BME280;61829;53.286;10.434;2022-09-09T01:06:33;100608.56;;;13.56;97.52
73558;BME280;61829;53.286;10.434;2022-09-09T01:14:13;100600.69;;;13.47;97.48
73558;BME280;61829;53.286;10.434;2022-09-09T01:16:42;100598.00;;;13.47;97.36
73558;BME280;61829;53.286;10.434;2022-09-09T01:19:10;100600.25;;;13.44;97.50
73558;BME280;61829;53.286;10.434;2022-09-09T01:26:57;100608.38;;;13.37;97.29
73558;BME280;61829;53.286;10.434;2022-09-09T01:29:25;100606.94;;;13.35;97.39
73558;BME280;61829;53.286;10.434;2022-09-09T01:32:42;100601.31;;;13.36;97.39
73558;BME280;61829;53.286;10.434;2022-09-09T01:34:41;100597.78;;;13.29;97.51
73558;BME280;61829;53.286;10.434;2022-09-09T01:37:10;100604.25;;;13.28;97.19
73558;BME280;61829;53.286;10.434;2022-09-09T01:39:39;100597.53;;;13.24;97.75
73558;BME280;61829;53.286;10.434;2022-09-09T01:42:09;100595.88;;;13.23;97.67
73558;BME280;61829;53.286;10.434;2022-09-09T01:44:36;100606.06;;;13.21;97.75
73558;BME280;61829;53.286;10.434;2022-09-09T01:47:04;100602.94;;;13.17;97.88
73558;BME280;61829;53.286;10.434;2022-09-09T01:49:31;100603.38;;;13.14;98.08
73558;BME280;61829;53.286;10.434;2022-09-09T01:51:58;100595.44;;;13.13;98.14
73558;BME280;61829;53.286;10.434;2022-09-09T01:54:27;100601.28;;;13.10;97.92
73558;BME280;61829;53.286;10.434;2022-09-09T02:04:50;100612.09;;;13.03;97.88
73558;BME280;61829;53.286;10.434;2022-09-09T02:07:43;100611.03;;;13.04;97.94
73558;BME280;61829;53.286;10.434;2022-09-09T02:10:19;100610.41;;;13.02;97.91
73558;BME280;61829;53.286;10.434;2022-09-09T02:12:51;100613.34;;;13.00;98.03
73558;BME280;61829;53.286;10.434;2022-09-09T02:15:30;100606.47;;;12.98;98.14
73558;BME280;61829;53.286;10.434;2022-09-09T02:18:00;100605.00;;;12.95;97.91
73558;BME280;61829;53.286;10.434;2022-09-09T02:20:31;100598.13;;;12.93;98.10
73558;BME280;61829;53.286;10.434;2022-09-09T02:22:58;100608.94;;;12.93;98.07
73558;BME280;61829;53.286;10.434;2022-09-09T02:25:26;100603.34;;;12.94;98.03
73558;BME280;61829;53.286;10.434;2022-09-09T02:27:54;100600.19;;;12.91;97.91
73558;BME280;61829;53.286;10.434;2022-09-09T02:30:23;100598.78;;;12.88;97.79
73558;BME280;61829;53.286;10.434;2022-09-09T02:32:52;100601.88;;;12.85;97.71
73558;BME280;61829;53.286;10.434;2022-09-09T02:35:24;100599.19;;;12.85;97.42
73558;BME280;61829;53.286;10.434;2022-09-09T02:37:54;100592.09;;;12.84;97.50
73558;BME280;61829;53.286;10.434;2022-09-09T02:40:22;100601.03;;;12.85;97.57
73558;BME280;61829;53.286;10.434;2022-09-09T02:42:48;100589.78;;;12.81;97.15
73558;BME280;61829;53.286;10.434;2022-09-09T02:45:18;100591.66;;;12.80;97.05
73558;BME280;61829;53.286;10.434;2022-09-09T02:53:43;100597.06;;;12.74;96.95
73558;BME280;61829;53.286;10.434;2022-09-09T02:56:16;100613.50;;;12.72;96.93
73558;BME280;61829;53.286;10.434;2022-09-09T02:58:43;100608.72;;;12.74;96.99
73558;BME280;61829;53.286;10.434;2022-09-09T03:01:09;100611.63;;;12.73;96.99
73558;BME280;61829;53.286;10.434;2022-09-09T03:03:35;100599.16;;;12.72;97.42
73558;BME280;61829;53.286;10.434;2022-09-09T03:06:01;100595.81;;;12.70;97.31
73558;BME280;61829;53.286;10.434;2022-09-09T03:08:27;100604.97;;;12.69;97.58
73558;BME280;61829;53.286;10.434;2022-09-09T03:10:59;100604.31;;;12.67;97.35
73558;BME280;61829;53.286;10.434;2022-09-09T03:13:26;100599.31;;;12.64;97.32
73558;BME280;61829;53.286;10.434;2022-09-09T03:15:53;100603.09;;;12.63;97.18
73558;BME280;61829;53.286;10.434;2022-09-09T03:18:19;100610.56;;;12.61;97.34
73558;BME280;61829;53.286;10.434;2022-09-09T03:20:46;100597.69;;;12.63;97.75
73558;BME280;61829;53.286;10.434;2022-09-09T03:23:14;100606.16;;;12.59;98.00
73558;BME280;61829;53.286;10.434;2022-09-09T03:25:46;100607.22;;;12.58;97.88
73558;BME280;61829;53.286;10.434;2022-09-09T03:28:12;100608.25;;;12.57;97.82
73558;BME280;61829;53.286;10.434;2022-09-09T03:30:38;100602.63;;;12.59;97.72
73558;BME280;61829;53.286;10.434;2022-09-09T03:33:04;100611.78;;;12.58;97.87
73558;BME280;61829;53.286;10.434;2022-09-09T03:35:30;100608.88;;;12.59;97.58
73558;BME280;61829;53.286;10.434;2022-09-09T03:37:56;100610.97;;;12.57;98.13
73558;BME280;61829;53.286;10.434;2022-09-09T03:40:22;100607.63;;;12.55;98.09
73558;BME280;61829;53.286;10.434;2022-09-09T03:42:48;100611.97;;;12.56;98.10
73558;BME280;61829;53.286;10.434;2022-09-09T03:45:14;100615.53;;;12.57;97.88
73558;BME280;61829;53.286;10.434;2022-09-09T03:47:40;100610.97;;;12.57;97.97
73558;BME280;61829;53.286;10.434;2022-09-09T03:50:08;100618.25;;;12.57;98.14
73558;BME280;61829;53.286;10.434;2022-09-09T03:52:37;100613.84;;;12.56;97.92
73558;BME280;61829;53.286;10.434;2022-09-09T03:55:05;100623.00;;;12.55;98.30
73558;BME280;61829;53.286;10.434;2022-09-09T03:57:32;100609.28;;;12.56;97.72
73558;BME280;61829;53.286;10.434;2022-09-09T04:00:03;100618.44;;;12.55;98.01
73558;BME280;61829;53.286;10.434;2022-09-09T04:02:29;100626.53;;;12.55;98.21
73558;BME280;61829;53.286;10.434;2022-09-09T04:04:55;100628.00;;;12.58;97.96
73558;BME280;61829;53.286;10.434;2022-09-09T04:07:21;100615.31;;;12.58;98.05
73558;BME280;61829;53.286;10.434;2022-09-09T04:09:47;100608.03;;;12.59;98.18
73558;BME280;61829;53.286;10.434;2022-09-09T04:12:13;100606.56;;;12.56;98.02
73558;BME280;61829;53.286;10.434;2022-09-09T04:14:39;100622.19;;;12.54;98.34
73558;BME280;61829;53.286;10.434;2022-09-09T04:17:05;100618.84;;;12.52;97.90
73558;BME280;61829;53.286;10.434;2022-09-09T04:19:32;100619.66;;;12.53;98.21
73558;BME280;61829;53.286;10.434;2022-09-09T04:21:58;100625.28;;;12.51;98.45
73558;BME280;61829;53.286;10.434;2022-09-09T04:24:25;100638.41;;;12.54;98.70
73558;BME280;61829;53.286;10.434;2022-09-09T04:26:52;100634.66;;;12.55;98.48
73558;BME280;61829;53.286;10.434;2022-09-09T04:29:18;100637.16;;;12.57;98.63
73558;BME280;61829;53.286;10.434;2022-09-09T04:31:44;100644.00;;;12.59;98.76
73558;BME280;61829;53.286;10.434;2022-09-09T04:34:10;100633.84;;;12.62;98.67
73558;BME280;61829;53.286;10.434;2022-09-09T04:36:36;100639.66;;;12.65;98.65
73558;BME280;61829;53.286;10.434;2022-09-09T04:39:06;100646.53;;;12.68;99.12
73558;BME280;61829;53.286;10.434;2022-09-09T04:41:32;100639.06;;;12.70;98.76
73558;BME280;61829;53.286;10.434;2022-09-09T04:43:58;100634.94;;;12.74;98.61
73558;BME280;61829;53.286;10.434;2022-09-09T04:46:24;100629.72;;;12.79;98.43
73558;BME280;61829;53.286;10.434;2022-09-09T04:48:50;100631.41;;;12.80;98.30
73558;BME280;61829;53.286;10.434;2022-09-09T04:51:18;100631.19;;;12.81;98.62
73558;BME280;61829;53.286;10.434;2022-09-09T04:53:47;100632.66;;;12.84;98.52
73558;BME280;61829;53.286;10.434;2022-09-09T04:56:15;100635.59;;;12.89;98.28
73558;BME280;61829;53.286;10.434;2022-09-09T04:58:42;100642.03;;;12.88;98.46
73558;BME280;61829;53.286;10.434;2022-09-09T05:01:11;100634.34;;;12.92;98.08
73558;BME280;61829;53.286;10.434;2022-09-09T05:03:38;100637.88;;;12.92;98.39
73558;BME280;61829;53.286;10.434;2022-09-09T05:06:09;100643.91;;;12.94;98.24
73558;BME280;61829;53.286;10.434;2022-09-09T05:08:40;100642.88;;;12.95;98.48
73558;BME280;61829;53.286;10.434;2022-09-09T05:11:24;100645.38;;;12.97;97.88
73558;BME280;61829;53.286;10.434;2022-09-09T05:13:50;100649.75;;;12.98;98.07
73558;BME280;61829;53.286;10.434;2022-09-09T05:16:17;100645.16;;;12.98;97.86
73558;BME280;61829;53.286;10.434;2022-09-09T05:18:45;100648.50;;;13.00;97.84
73558;BME280;61829;53.286;10.434;2022-09-09T05:21:16;100652.88;;;13.01;97.77
73558;BME280;61829;53.286;10.434;2022-09-09T05:23:42;100649.97;;;13.03;97.66
73558;BME280;61829;53.286;10.434;2022-09-09T05:26:19;100658.28;;;13.01;97.78
73558;BME280;61829;53.286;10.434;2022-09-09T05:28:46;100664.13;;;13.05;97.52
73558;BME280;61829;53.286;10.434;2022-09-09T05:31:13;100657.44;;;13.08;97.20
73558;BME280;61829;53.286;10.434;2022-09-09T05:33:42;100656.22;;;13.10;97.58
73558;BME280;61829;53.286;10.434;2022-09-09T05:36:12;100655.59;;;13.15;97.44
73558;BME280;61829;53.286;10.434;2022-09-09T05:38:43;100655.59;;;13.21;97.65
73558;BME280;61829;53.286;10.434;2022-09-09T05:41:10;100660.84;;;13.30;97.59
73558;BME280;61829;53.286;10.434;2022-09-09T05:43:37;100663.56;;;13.56;97.82
73558;BME280;61829;53.286;10.434;2022-09-09T05:48:40;100676.16;;;14.29;97.08
73558;BME280;61829;53.286;10.434;2022-09-09T05:51:09;100670.53;;;14.24;95.52
73558;BME280;61829;53.286;10.434;2022-09-09T05:53:36;100685.38;;;14.21;94.30
73558;BME280;61829;53.286;10.434;2022-09-09T05:56:16;100674.94;;;14.18;93.15
73558;BME280;61829;53.286;10.434;2022-09-09T05:58:44;100675.34;;;14.15;93.42
73558;BME280;61829;53.286;10.434;2022-09-09T06:01:24;100674.75;;;14.13;93.67
73558;BME280;61829;53.286;10.434;2022-09-09T06:03:52;100690.38;;;14.11;93.25
73558;BME280;61829;53.286;10.434;2022-09-09T06:06:23;100681.22;;;14.05;93.24
73558;BME280;61829;53.286;10.434;2022-09-09T06:08:53;100683.94;;;14.05;93.15
73558;BME280;61829;53.286;10.434;2022-09-09T06:11:28;100691.66;;;14.02;93.48
73558;BME280;61829;53.286;10.434;2022-09-09T06:13:57;100698.09;;;14.01;93.29
73558;BME280;61829;53.286;10.434;2022-09-09T06:16:25;100693.53;;;13.95;93.48
73558;BME280;61829;53.286;10.434;2022-09-09T06:18:53;100693.13;;;13.91;93.42
73558;BME280;61829;53.286;10.434;2022-09-09T06:21:22;100704.16;;;13.89;93.07
73558;BME280;61829;53.286;10.434;2022-09-09T06:23:49;100705.63;;;13.85;93.56
73558;BME280;61829;53.286;10.434;2022-09-09T06:26:21;100698.56;;;13.84;94.06
73558;BME280;61829;53.286;10.434;2022-09-09T06:28:49;100699.38;;;13.85;93.84
73558;BME280;61829;53.286;10.434;2022-09-09T06:31:18;100702.53;;;13.82;94.39
73558;BME280;61829;53.286;10.434;2022-09-09T06:33:49;100703.34;;;13.82;94.35
73558;BME280;61829;53.286;10.434;2022-09-09T06:36:21;100702.28;;;13.83;94.52
73558;BME280;61829;53.286;10.434;2022-09-09T06:38:47;100705.63;;;13.85;94.48
73558;BME280;61829;53.286;10.434;2022-09-09T06:41:15;100707.09;;;13.88;94.50
73558;BME280;61829;53.286;10.434;2022-09-09T06:43:42;100709.38;;;13.91;94.54
73558;BME280;61829;53.286;10.434;2022-09-09T06:48:36;100709.59;;;13.96;94.73
73558;BME280;61829;53.286;10.434;2022-09-09T06:51:09;100716.88;;;13.96;94.95
73558;BME280;61829;53.286;10.434;2022-09-09T06:53:38;100715.41;;;14.00;94.96
73558;BME280;61829;53.286;10.434;2022-09-09T06:58:37;100705.63;;;14.05;94.84
73558;BME280;61829;53.286;10.434;2022-09-09T07:01:10;100716.03;;;14.08;95.16
73558;BME280;61829;53.286;10.434;2022-09-09T07:03:38;100710.59;;;14.15;94.66
73558;BME280;61829;53.286;10.434;2022-09-09T07:06:05;100710.16;;;14.18;94.83
73558;BME280;61829;53.286;10.434;2022-09-09T07:08:31;100712.66;;;14.26;95.08
73558;BME280;61829;53.286;10.434;2022-09-09T07:11:05;100712.22;;;14.36;94.87
73558;BME280;61829;53.286;10.434;2022-09-09T07:13:32;100718.88;;;14.47;94.74
73558;BME280;61829;53.286;10.434;2022-09-09T07:16:09;100715.53;;;14.58;94.57
73558;BME280;61829;53.286;10.434;2022-09-09T07:18:36;100716.72;;;14.75;94.61
73558;BME280;61829;53.286;10.434;2022-09-09T07:21:03;100709.94;;;14.91;94.87
73558;BME280;61829;53.286;10.434;2022-09-09T07:23:30;100714.22;;;15.12;93.18
73558;BME280;61829;53.286;10.434;2022-09-09T07:25:57;100714.78;;;15.53;93.30
73558;BME280;61829;53.286;10.434;2022-09-09T07:28:24;100716.94;;;15.76;90.39
73558;BME280;61829;53.286;10.434;2022-09-09T07:30:58;100712.03;;;16.09;89.52
73558;BME280;61829;53.286;10.434;2022-09-09T07:33:25;100701.94;;;16.35;87.86
73558;BME280;61829;53.286;10.434;2022-09-09T07:35:52;100713.13;;;16.64;86.64
73558;BME280;61829;53.286;10.434;2022-09-09T07:38:19;100710.63;;;16.99;86.91
73558;BME280;61829;53.286;10.434;2022-09-09T07:40:46;100708.47;;;17.01;84.62
73558;BME280;61829;53.286;10.434;2022-09-09T07:43:12;100715.59;;;17.02;84.86
73558;BME280;61829;53.286;10.434;2022-09-09T07:45:39;100714.91;;;17.06;85.36
73558;BME280;61829;53.286;10.434;2022-09-09T07:48:06;100720.47;;;17.12;83.55
73558;BME280;61829;53.286;10.434;2022-09-09T07:50:31;100727.41;;;17.26;84.06
73558;BME280;61829;53.286;10.434;2022-09-09T07:52:58;100724.78;;;17.61;83.69
73558;BME280;61829;53.286;10.434;2022-09-09T07:59:23;100728.88;;;17.94;81.53
73558;BME280;61829;53.286;10.434;2022-09-09T08:01:55;100728.06;;;18.05;81.48
73558;BME280;61829;53.286;10.434;2022-09-09T08:04:22;100724.25;;;18.30;81.01
73558;BME280;61829;53.286;10.434;2022-09-09T08:06:51;100724.94;;;18.37;80.44
73558;BME280;61829;53.286;10.434;2022-09-09T08:09:19;100721.25;;;18.55;79.56
73558;BME280;61829;53.286;10.434;2022-09-09T08:11:46;100730.31;;;18.96;76.64
73558;BME280;61829;53.286;10.434;2022-09-09T08:14:13;100734.31;;;19.05;78.36
73558;BME280;61829;53.286;10.434;2022-09-09T08:16:44;100733.25;;;19.06;76.56
73558;BME280;61829;53.286;10.434;2022-09-09T08:19:11;100731.56;;;19.05;77.45
73558;BME280;61829;53.286;10.434;2022-09-09T08:21:39;100743.59;;;19.04;76.69
73558;BME280;61829;53.286;10.434;2022-09-09T08:24:06;100734.22;;;19.00;77.27
73558;BME280;61829;53.286;10.434;2022-09-09T08:26:35;100739.31;;;19.08;76.16
73558;BME280;61829;53.286;10.434;2022-09-09T08:29:03;100742.16;;;19.30;77.46
73558;BME280;61829;53.286;10.434;2022-09-09T08:31:36;100748.28;;;19.20;75.94
73558;BME280;61829;53.286;10.434;2022-09-09T08:34:03;100757.25;;;19.04;75.01
73558;BME280;61829;53.286;10.434;2022-09-09T08:36:33;100752.50;;;18.99;75.51
73558;BME280;61829;53.286;10.434;2022-09-09T08:39:01;100749.09;;;18.92;77.16
73558;BME280;61829;53.286;10.434;2022-09-09T08:57:51;100755.75;;;19.42;76.39
73558;BME280;61829;53.286;10.434;2022-09-09T09:00:19;100761.91;;;19.49;74.85
73558;BME280;61829;53.286;10.434;2022-09-09T09:06:31;100758.84;;;19.45;73.03
73558;BME280;61829;53.286;10.434;2022-09-09T09:08:51;100764.59;;;19.61;75.94
73558;BME280;61829;53.286;10.434;2022-09-09T09:11:20;100758.44;;;19.99;74.42
73558;BME280;61829;53.286;10.434;2022-09-09T09:14:14;100757.41;;;20.22;73.87
73558;BME280;61829;53.286;10.434;2022-09-09T09:17:00;100766.59;;;20.50;73.71
73558;BME280;61829;53.286;10.434;2022-09-09T09:19:28;100768.22;;;20.68;72.00
73558;BME280;61829;53.286;10.434;2022-09-09T09:22:24;100769.28;;;21.11;72.09
73558;BME280;61829;53.286;10.434;2022-09-09T09:27:32;100764.69;;;21.38;68.82
73558;BME280;61829;53.286;10.434;2022-09-09T09:30:00;100767.28;;;21.28;68.31
73558;BME280;61829;53.286;10.434;2022-09-09T09:32:30;100760.63;;;21.19;68.84
73558;BME280;61829;53.286;10.434;2022-09-09T09:35:00;100762.69;;;21.06;68.37
73558;BME280;61829;53.286;10.434;2022-09-09T09:37:34;100756.25;;;20.96;68.95
73558;BME280;61829;53.286;10.434;2022-09-09T09:40:17;100760.84;;;20.90;69.83
73558;BME280;61829;53.286;10.434;2022-09-09T09:43:01;100767.41;;;20.89;69.17
73558;BME280;61829;53.286;10.434;2022-09-09T09:45:33;100766.69;;;20.77;69.94
73558;BME280;61829;53.286;10.434;2022-09-09T09:48:02;100765.56;;;20.73;70.48
73558;BME280;61829;53.286;10.434;2022-09-09T09:50:29;100763.69;;;20.56;69.32
73558;BME280;61829;53.286;10.434;2022-09-09T09:53:23;100771.41;;;20.42;70.47
73558;BME280;61829;53.286;10.434;2022-09-09T09:55:59;100767.66;;;20.32;70.09
73558;BME280;61829;53.286;10.434;2022-09-09T10:01:31;100761.00;;;20.06;70.22
73558;BME280;61829;53.286;10.434;2022-09-09T10:04:22;100761.16;;;19.99;71.89
73558;BME280;61829;53.286;10.434;2022-09-09T10:06:51;100764.97;;;19.98;72.08
73558;BME280;61829;53.286;10.434;2022-09-09T10:09:26;100763.81;;;20.11;71.01
73558;BME280;61829;53.286;10.434;2022-09-09T10:22:51;100763.66;;;20.95;67.54
73558;BME280;61829;53.286;10.434;2022-09-09T10:28:57;100764.53;;;21.01;67.59
73558;BME280;61829;53.286;10.434;2022-09-09T10:36:47;100766.41;;;21.44;66.59
73558;BME280;61829;53.286;10.434;2022-09-09T10:55:12;100751.97;;;22.66;60.73
73558;BME280;61829;53.286;10.434;2022-09-09T10:57:43;100753.66;;;22.72;58.80
73558;BME280;61829;53.286;10.434;2022-09-09T11:00:18;100749.84;;;22.83;55.99
73558;BME280;61829;53.286;10.434;2022-09-09T11:02:50;100741.63;;;22.89;56.80
73558;BME280;61829;53.286;10.434;2022-09-09T11:05:29;100741.19;;;23.17;56.69
73558;BME280;61829;53.286;10.434;2022-09-09T11:11:04;100745.47;;;22.82;56.48
73558;BME280;61829;53.286;10.434;2022-09-09T11:18:58;100740.53;;;22.90;58.17
73558;BME280;61829;53.286;10.434;2022-09-09T11:21:31;100734.19;;;22.79;55.03
73558;BME280;61829;53.286;10.434;2022-09-09T11:24:38;100739.59;;;22.63;56.73
73558;BME280;61829;53.286;10.434;2022-09-09T11:27:25;100743.47;;;22.68;57.38
73558;BME280;61829;53.286;10.434;2022-09-09T11:32:46;100745.84;;;22.49;59.83
73558;BME280;61829;53.286;10.434;2022-09-09T11:40:45;100750.03;;;22.19;60.40
73558;BME280;61829;53.286;10.434;2022-09-09T11:46:35;100754.31;;;22.05;63.36
73558;BME280;61829;53.286;10.434;2022-09-09T11:51:52;100766.28;;;21.93;66.37
73558;BME280;61829;53.286;10.434;2022-09-09T11:54:30;100766.94;;;21.73;69.19
73558;BME280;61829;53.286;10.434;2022-09-09T11:56:58;100790.25;;;21.44;69.61
73558;BME280;61829;53.286;10.434;2022-09-09T11:59:30;100777.88;;;21.19;70.20
73558;BME280;61829;53.286;10.434;2022-09-09T12:02:02;100792.31;;;20.88;69.86
73558;BME280;61829;53.286;10.434;2022-09-09T12:04:35;100800.25;;;20.50;70.58
73558;BME280;61829;53.286;10.434;2022-09-09T12:09:48;100786.03;;;19.52;64.58
73558;BME280;61829;53.286;10.434;2022-09-09T12:17:48;100778.00;;;19.17;72.01
73558;BME280;61829;53.286;10.434;2022-09-09T12:31:05;100779.13;;;18.92;74.73
73558;BME280;61829;53.286;10.434;2022-09-09T12:33:39;100775.28;;;19.05;73.98
73558;BME280;61829;53.286;10.434;2022-09-09T12:36:18;100776.91;;;19.18;75.02
73558;BME280;61829;53.286;10.434;2022-09-09T12:38:45;100766.69;;;19.25;74.36
73558;BME280;61829;53.286;10.434;2022-09-09T12:41:21;100767.13;;;19.34;73.33
73558;BME280;61829;53.286;10.434;2022-09-09T12:43:48;100769.69;;;19.40;75.77
73558;BME280;61829;53.286;10.434;2022-09-09T12:46:32;100771.19;;;19.48;77.09
73558;BME280;61829;53.286;10.434;2022-09-09T12:49:03;100757.13;;;19.56;76.50
73558;BME280;61829;53.286;10.434;2022-09-09T12:51:31;100749.13;;;19.66;76.04
73558;BME280;61829;53.286;10.434;2022-09-09T12:53:59;100744.25;;;19.68;74.28
73558;BME280;61829;53.286;10.434;2022-09-09T12:56:27;100738.78;;;19.68;75.27
73558;BME280;61829;53.286;10.434;2022-09-09T12:58:56;100737.28;;;19.78;74.44
73558;BME280;61829;53.286;10.434;2022-09-09T13:01:27;100740.34;;;19.81;73.98
73558;BME280;61829;53.286;10.434;2022-09-09T13:03:54;100745.25;;;19.96;73.63
73558;BME280;61829;53.286;10.434;2022-09-09T13:06:31;100737.28;;;20.11;73.38
73558;BME280;61829;53.286;10.434;2022-09-09T13:09:00;100743.22;;;20.25;73.67
73558;BME280;61829;53.286;10.434;2022-09-09T13:11:36;100749.75;;;20.41;70.83
73558;BME280;61829;53.286;10.434;2022-09-09T13:14:04;100751.13;;;20.60;69.53
73558;BME280;61829;53.286;10.434;2022-09-09T13:16:33;100754.72;;;20.83;71.17
73558;BME280;61829;53.286;10.434;2022-09-09T13:19:14;100758.34;;;21.11;71.30
73558;BME280;61829;53.286;10.434;2022-09-09T13:21:41;100765.66;;;21.27;71.00
73558;BME280;61829;53.286;10.434;2022-09-09T13:24:33;100767.94;;;21.35;70.78
73558;BME280;61829;53.286;10.434;2022-09-09T13:27:05;100763.09;;;21.42;71.22
73558;BME280;61829;53.286;10.434;2022-09-09T13:29:54;100762.91;;;21.49;72.12
73558;BME280;61829;53.286;10.434;2022-09-09T13:32:23;100765.31;;;21.45;70.51
73558;BME280;61829;53.286;10.434;2022-09-09T13:34:55;100765.81;;;21.42;71.36
73558;BME280;61829;53.286;10.434;2022-09-09T13:37:38;100769.00;;;21.34;69.99
73558;BME280;61829;53.286;10.434;2022-09-09T13:40:17;100767.22;;;21.23;69.82
73558;BME280;61829;53.286;10.434;2022-09-09T13:42:44;100768.47;;;21.10;69.38
73558;BME280;61829;53.286;10.434;2022-09-09T13:45:19;100781.22;;;20.99;69.76
73558;BME280;61829;53.286;10.434;2022-09-09T13:47:46;100783.34;;;20.92;69.72
73558;BME280;61829;53.286;10.434;2022-09-09T13:52:51;100769.44;;;20.77;70.69
73558;BME280;61829;53.286;10.434;2022-09-09T13:55:21;100772.69;;;20.74;70.67
73558;BME280;61829;53.286;10.434;2022-09-09T13:58:02;100776.16;;;20.69;71.58
73558;BME280;61829;53.286;10.434;2022-09-09T14:00:30;100772.53;;;20.63;71.44
73558;BME280;61829;53.286;10.434;2022-09-09T14:02:56;100764.00;;;20.60;71.55
73558;BME280;61829;53.286;10.434;2022-09-09T14:05:22;100766.25;;;20.46;71.67
73558;BME280;61829;53.286;10.434;2022-09-09T14:07:49;100759.81;;;20.35;70.84
73558;BME280;61829;53.286;10.434;2022-09-09T14:10:16;100756.66;;;20.27;71.30
73558;BME280;61829;53.286;10.434;2022-09-09T14:12:42;100766.88;;;20.14;72.33
73558;BME280;61829;53.286;10.434;2022-09-09T14:15:10;100769.88;;;19.96;72.47
73558;BME280;61829;53.286;10.434;2022-09-09T14:17:38;100779.94;;;19.79;73.45
73558;BME280;61829;53.286;10.434;2022-09-09T14:20:06;100770.50;;;19.69;74.52
73558;BME280;61829;53.286;10.434;2022-09-09T14:22:35;100772.78;;;19.61;75.42
73558;BME280;61829;53.286;10.434;2022-09-09T14:25:02;100775.41;;;19.56;76.71
73558;BME280;61829;53.286;10.434;2022-09-09T14:27:28;100767.53;;;19.42;74.83
73558;BME280;61829;53.286;10.434;2022-09-09T14:29:58;100765.22;;;19.34;75.47
73558;BME280;61829;53.286;10.434;2022-09-09T14:32:26;100766.69;;;19.25;75.56
73558;BME280;61829;53.286;10.434;2022-09-09T14:34:52;100762.44;;;19.17;75.95
73558;BME280;61829;53.286;10.434;2022-09-09T14:37:18;100768.88;;;19.11;75.70
73558;BME280;61829;53.286;10.434;2022-09-09T14:39:44;100768.66;;;19.01;74.20
73558;BME280;61829;53.286;10.434;2022-09-09T14:42:13;100768.69;;;18.89;73.90
73558;BME280;61829;53.286;10.434;2022-09-09T14:44:40;100779.50;;;18.84;75.64
73558;BME280;61829;53.286;10.434;2022-09-09T14:47:06;100785.22;;;18.82;76.67
73558;BME280;61829;53.286;10.434;2022-09-09T14:49:34;100785.31;;;18.76;75.20
73558;BME280;61829;53.286;10.434;2022-09-09T14:52:01;100779.88;;;18.52;73.39
73558;BME280;61829;53.286;10.434;2022-09-09T14:54:27;100773.25;;;18.25;75.35
73558;BME280;61829;53.286;10.434;2022-09-09T14:56:53;100785.19;;;17.88;77.35
73558;BME280;61829;53.286;10.434;2022-09-09T14:59:20;100786.88;;;17.71;79.14
73558;BME280;61829;53.286;10.434;2022-09-09T15:01:46;100783.78;;;17.56;79.31
73558;BME280;61829;53.286;10.434;2022-09-09T15:04:12;100782.88;;;17.43;79.16
73558;BME280;61829;53.286;10.434;2022-09-09T15:06:40;100787.59;;;17.36;79.86
73558;BME280;61829;53.286;10.434;2022-09-09T15:09:08;100776.25;;;17.39;79.29
73558;BME280;61829;53.286;10.434;2022-09-09T15:11:36;100775.31;;;17.45;79.95
73558;BME280;61829;53.286;10.434;2022-09-09T15:14:07;100767.03;;;17.52;80.45
73558;BME280;61829;53.286;10.434;2022-09-09T15:16:34;100756.75;;;17.54;80.74
73558;BME280;61829;53.286;10.434;2022-09-09T15:19:01;100761.09;;;17.43;82.24
73558;BME280;61829;53.286;10.434;2022-09-09T15:21:32;100754.00;;;17.42;83.23
73558;BME280;61829;53.286;10.434;2022-09-09T15:23:59;100762.78;;;17.44;83.22
73558;BME280;61829;53.286;10.434;2022-09-09T15:26:26;100765.03;;;17.47;82.88
73558;BME280;61829;53.286;10.434;2022-09-09T15:28:53;100760.75;;;17.51;83.14
73558;BME280;61829;53.286;10.434;2022-09-09T15:31:20;100763.13;;;17.48;82.40
73558;BME280;61829;53.286;10.434;2022-09-09T15:33:58;100752.22;;;17.48;84.17
73558;BME280;61829;53.286;10.434;2022-09-09T15:39:02;100755.63;;;17.43;84.57
73558;BME280;61829;53.286;10.434;2022-09-09T15:41:29;100751.13;;;17.37;85.36